Daily Summary for April 12, 2021 Units:  Metric    English   Both
Daily Weekly Monthly Yearly
  Current: High: Low: Average:
Temperature: 15.9 °C 15.9 °C 1.4 °C 6.5 °C
Dew Point: 3.8 °C 4.2 °C 0 °C 1.9 °C
Humidity: 44.4% 91% 44.4% 75%
Wind Speed: 6.4km/h 10.3km/h 0km/h 3.9km/h
Wind Gust: 14.5km/h 22.5km/h - -
WindNorth - - WSW
Pressure: 1019.1 hPa 1020.7 hPa 1016.3 hPa -
Precipitation: 0.0 mm      
 
 
Tabular Data for April 12, 2021
Time Temperature Dew Point Pressure Wind Wind Speed Wind Gust Humidity Rainfall Rate (Hourly) solar
00:04 6.3 °C 2 °C 1016.3 hPa WNW 3.2 km/h 9.7 km/h 74% 0.0 mm 0 W/m2
00:09 6.2 °C 2 °C 1016.3 hPa NW 3.2 km/h 6.4 km/h 74% 0.0 mm 0 W/m2
00:14 6.2 °C 1.9 °C 1016.3 hPa NW 3.2 km/h 9.7 km/h 74.2% 0.0 mm 0 W/m2
00:19 6.1 °C 2 °C 1016.3 hPa NW 3.9 km/h 16.1 km/h 75.2% 0.0 mm 0 W/m2
00:24 6 °C 2.2 °C 1016.3 hPa NW 5.8 km/h 16.1 km/h 76.3% 0.0 mm 0 W/m2
00:29 5.9 °C 2.2 °C 1016.3 hPa NW 6.4 km/h 16.1 km/h 77% 0.0 mm 0 W/m2
00:34 5.9 °C 2.1 °C 1016.3 hPa WNW 5.5 km/h 12.9 km/h 77% 0.0 mm 0 W/m2
00:39 5.9 °C 2.2 °C 1016.3 hPa West 6.4 km/h 12.9 km/h 77% 0.0 mm 0 W/m2
00:44 6 °C 2.3 °C 1016.3 hPa West 6.4 km/h 12.9 km/h 77% 0.0 mm 0 W/m2
00:49 6.1 °C 2.4 °C 1016.3 hPa WNW 6.1 km/h 12.9 km/h 77% 0.0 mm 0 W/m2
00:54 6.1 °C 2.4 °C 1016.4 hPa WNW 4.8 km/h 12.9 km/h 77% 0.0 mm 0 W/m2
00:59 6 °C 2.3 °C 1016.4 hPa NW 2.9 km/h 11.3 km/h 77% 0.0 mm 0 W/m2
01:04 5.9 °C 2.2 °C 1016.5 hPa NNW 1.6 km/h 6.4 km/h 77% 0.0 mm 0 W/m2
01:09 5.9 °C 2.2 °C 1016.4 hPa North 1.6 km/h 4.8 km/h 77% 0.0 mm 0 W/m2
01:14 5.8 °C 2.1 °C 1016.4 hPa North 1.6 km/h 4.8 km/h 77.3% 0.0 mm 0 W/m2
01:19 5.6 °C 2.1 °C 1016.4 hPa NW 2.6 km/h 9.7 km/h 78% 0.0 mm 0 W/m2
01:24 5.5 °C 2.1 °C 1016.4 hPa West 3.5 km/h 11.3 km/h 78.9% 0.0 mm 0 W/m2
01:29 5.4 °C 2.1 °C 1016.3 hPa West 4.8 km/h 11.3 km/h 79.4% 0.0 mm 0 W/m2
01:34 5 °C 1.9 °C 1016.4 hPa WNW 4.2 km/h 11.3 km/h 80% 0.0 mm 0 W/m2
01:39 4.7 °C 1.7 °C 1016.4 hPa NW 3.2 km/h 11.3 km/h 81.3% 0.0 mm 0 W/m2
01:44 4.4 °C 1.7 °C 1016.4 hPa North 1.6 km/h 6.4 km/h 82.3% 0.0 mm 0 W/m2
01:49 4.3 °C 1.7 °C 1016.4 hPa NNE 1.9 km/h 6.4 km/h 83% 0.0 mm 0 W/m2
01:54 4.1 °C 1.6 °C 1016.5 hPa NNE 3.2 km/h 6.4 km/h 83.6% 0.0 mm 0 W/m2
01:59 4.2 °C 1.8 °C 1016.5 hPa NNE 3.2 km/h 4.8 km/h 84.3% 0.0 mm 0 W/m2
02:04 4.4 °C 1.9 °C 1016.5 hPa NE 2.3 km/h 4.8 km/h 84% 0.0 mm 0 W/m2
02:09 4.5 °C 2 °C 1016.5 hPa NNE 1.6 km/h 3.2 km/h 83.8% 0.0 mm 0 W/m2
02:14 4.4 °C 1.8 °C 1016.5 hPa NNW 1.6 km/h 6.4 km/h 83% 0.0 mm 0 W/m2
02:19 4.3 °C 1.7 °C 1016.4 hPa WNW 2.9 km/h 6.4 km/h 83.1% 0.0 mm 0 W/m2
02:24 4.2 °C 1.8 °C 1016.5 hPa West 3.2 km/h 6.4 km/h 84% 0.0 mm 0 W/m2
02:29 4 °C 1.6 °C 1016.4 hPa West 1.9 km/h 6.4 km/h 84% 0.0 mm 0 W/m2
02:34 3.9 °C 1.4 °C 1016.4 hPa West 1.6 km/h 4.8 km/h 84.2% 0.0 mm 0 W/m2
02:39 3.7 °C 1.4 °C 1016.4 hPa Calm   3.2 km/h 85% 0.0 mm 0 W/m2
02:44 3.7 °C 1.4 °C 1016.3 hPa Calm   3.2 km/h 85% 0.0 mm 0 W/m2
02:49 3.6 °C 1.4 °C 1016.3 hPa West 1 km/h 3.2 km/h 85.2% 0.0 mm 0 W/m2
02:54 3.6 °C 1.4 °C 1016.3 hPa West 0.6 km/h 3.2 km/h 85.5% 0.0 mm 0 W/m2
02:59 3.7 °C 1.5 °C 1016.3 hPa Calm   3.2 km/h 85% 0.0 mm 0 W/m2
03:04 3.9 °C 1.5 °C 1016.4 hPa Calm   4.8 km/h 84.5% 0.0 mm 0 W/m2
03:09 4 °C 1.5 °C 1016.4 hPa West 1.6 km/h 4.8 km/h 84.1% 0.0 mm 0 W/m2
03:14 3.8 °C 1.3 °C 1016.6 hPa West 1.6 km/h 4.8 km/h 83.4% 0.0 mm 0 W/m2
03:19 3.8 °C 1.4 °C 1016.7 hPa West 1.6 km/h 3.2 km/h 84% 0.0 mm 0 W/m2
03:24 3.7 °C 1.1 °C 1016.7 hPa West 1.6 km/h 3.2 km/h 83.2% 0.0 mm 0 W/m2
03:29 3.3 °C 0.8 °C 1016.7 hPa SW 1.6 km/h 6.4 km/h 83.4% 0.0 mm 0 W/m2
03:34 3.1 °C 0.8 °C 1016.7 hPa ESE 3.2 km/h 9.7 km/h 84.4% 0.0 mm 0 W/m2
03:39 3 °C 0.8 °C 1016.7 hPa East 3.9 km/h 11.3 km/h 85.4% 0.0 mm 0 W/m2
03:44 2.9 °C 0.8 °C 1016.7 hPa East 3.2 km/h 11.3 km/h 86% 0.0 mm 0 W/m2
03:49 2.9 °C 0.9 °C 1016.8 hPa East 3.2 km/h 11.3 km/h 86.5% 0.0 mm 0 W/m2
03:54 2.9 °C 1 °C 1016.8 hPa East 3.2 km/h 6.4 km/h 87% 0.0 mm 0 W/m2
03:59 2.9 °C 0.9 °C 1016.8 hPa East 3.2 km/h 4.8 km/h 87% 0.0 mm 0 W/m2
04:04 2.9 °C 0.9 °C 1016.9 hPa East 1.9 km/h 4.8 km/h 87% 0.0 mm 0 W/m2
04:09 2.7 °C 0.9 °C 1016.9 hPa East 1.6 km/h 3.2 km/h 87.4% 0.0 mm 0 W/m2
04:14 2.7 °C 0.9 °C 1017.0 hPa East 1.6 km/h 3.2 km/h 88% 0.0 mm 0 W/m2
04:19 2.8 °C 1 °C 1017.0 hPa East 1.6 km/h 3.2 km/h 88% 0.0 mm 0 W/m2
04:24 2.7 °C 0.9 °C 1017.1 hPa East 1.9 km/h 4.8 km/h 88% 0.0 mm 0 W/m2
04:29 2.7 °C 0.9 °C 1017.2 hPa East 3.2 km/h 6.4 km/h 88% 0.0 mm 0 W/m2
04:34 2.7 °C 0.9 °C 1017.3 hPa ENE 3.2 km/h 6.4 km/h 88% 0.0 mm 0 W/m2
04:39 2.6 °C 0.8 °C 1017.3 hPa ENE 2.6 km/h 6.4 km/h 88% 0.0 mm 0 W/m2
04:44 2.5 °C 0.7 °C 1017.4 hPa ENE 1.6 km/h 4.8 km/h 88% 0.0 mm 0 W/m2
04:49 2.5 °C 0.9 °C 1017.4 hPa ENE 2.6 km/h 6.4 km/h 88.5% 0.0 mm 0 W/m2
04:54 2.6 °C 0.9 °C 1017.5 hPa East 2.3 km/h 6.4 km/h 88.3% 0.0 mm 0 W/m2
04:59 2.6 °C 0.8 °C 1017.5 hPa East 1.6 km/h 6.4 km/h 88% 0.0 mm 0 W/m2
05:04 2.5 °C 0.7 °C 1017.5 hPa East 1.6 km/h 4.8 km/h 88% 0.0 mm 0 W/m2
05:09 2.4 °C 0.7 °C 1017.6 hPa East 1.6 km/h 4.8 km/h 88.5% 0.0 mm 0 W/m2
05:14 2.3 °C 0.7 °C 1017.7 hPa East 1.6 km/h 3.2 km/h 88.6% 0.0 mm 0 W/m2
05:19 2.2 °C 0.5 °C 1017.8 hPa East 1.6 km/h 3.2 km/h 88.3% 0.0 mm 0 W/m2
05:24 2 °C 0.4 °C 1017.9 hPa East 1.3 km/h 3.2 km/h 88.7% 0.0 mm 0 W/m2
05:29 2.2 °C 0.5 °C 1017.9 hPa East 0.3 km/h 3.2 km/h 89% 0.0 mm 0 W/m2
05:34 1.9 °C 0.2 °C 1018.0 hPa Calm   3.2 km/h 88.7% 0.0 mm 0 W/m2
05:39 1.8 °C 0.2 °C 1018.0 hPa East 0.6 km/h 3.2 km/h 89.3% 0.0 mm 0 W/m2
05:44 2 °C 0.5 °C 1018.0 hPa East 1.6 km/h 6.4 km/h 89.8% 0.0 mm 0 W/m2
05:49 2.2 °C 0.7 °C 1018.1 hPa East 1.6 km/h 6.4 km/h 90% 0.0 mm 0 W/m2
05:54 2.2 °C 0.8 °C 1018.1 hPa East 1.6 km/h 6.4 km/h 90% 0.0 mm 0 W/m2
05:59 2.2 °C 0.8 °C 1018.1 hPa East 1.6 km/h 4.8 km/h 90% 0.0 mm 0 W/m2
06:04 2.2 °C 0.7 °C 1018.2 hPa Calm   4.8 km/h 90% 0.0 mm 0 W/m2
06:09 2 °C 0.6 °C 1018.2 hPa Calm   1.6 km/h 89.8% 0.0 mm 0 W/m2
06:14 1.7 °C 0.1 °C 1018.5 hPa Calm   3.2 km/h 89.3% 0.0 mm 0 W/m2
06:19 1.6 °C 0.1 °C 1018.6 hPa Calm   3.2 km/h 89.8% 0.0 mm 0 W/m2
06:24 1.7 °C 0.2 °C 1018.6 hPa East 1 km/h 3.2 km/h 89.9% 0.0 mm 0 W/m2
06:29 1.5 °C 0 °C 1018.6 hPa Calm   1.6 km/h 89.8% 0.0 mm 5 W/m2
06:34 1.4 °C 0 °C 1018.7 hPa Calm   1.6 km/h 90% 0.0 mm 7 W/m2
06:39 1.7 °C 0.3 °C 1018.8 hPa Calm   3.2 km/h 90.9% 0.0 mm 11 W/m2
06:44 1.8 °C 0.4 °C 1018.8 hPa East 0.3 km/h 3.2 km/h 90.5% 0.0 mm 12 W/m2
06:49 1.7 °C 0.3 °C 1018.8 hPa East 1.6 km/h 3.2 km/h 90.5% 0.0 mm 14 W/m2
06:54 1.6 °C 0.2 °C 1018.8 hPa East 1.6 km/h 3.2 km/h 90.4% 0.0 mm 16 W/m2
06:59 1.6 °C 0.2 °C 1018.9 hPa East 1 km/h 3.2 km/h 90.6% 0.0 mm 18 W/m2
07:04 1.8 °C 0.5 °C 1019.0 hPa Calm   3.2 km/h 91% 0.0 mm 25 W/m2
07:09 1.7 °C 0.3 °C 1019.0 hPa Calm   4.8 km/h 90.3% 0.0 mm 23 W/m2
07:14 1.9 °C 0.6 °C 1019.1 hPa SE 1.6 km/h 4.8 km/h 91% 0.0 mm 90 W/m2
07:19 2.1 °C 0.8 °C 1019.2 hPa SE 1.3 km/h 4.8 km/h 91% 0.0 mm 123 W/m2
07:24 2.4 °C 1.1 °C 1019.4 hPa SSE 0.3 km/h 3.2 km/h 91% 0.0 mm 141 W/m2
07:29 2.7 °C 1.4 °C 1019.4 hPa SSE 1.6 km/h 3.2 km/h 90.7% 0.0 mm 160 W/m2
07:34 3 °C 1.5 °C 1019.5 hPa SSE 1.6 km/h 4.8 km/h 90% 0.0 mm 176 W/m2
07:39 3.3 °C 1.8 °C 1019.6 hPa WSW 2.5 km/h 4.8 km/h 90% 0.0 mm 193 W/m2
07:44 3.6 °C 2 °C 1019.8 hPa West 3.2 km/h 4.8 km/h 89.3% 0.0 mm 213 W/m2
07:49 4.1 °C 2.3 °C 1019.8 hPa West 2.9 km/h 6.4 km/h 88.5% 0.0 mm 230 W/m2
07:54 4.5 °C 2.6 °C 1020.0 hPa West 1.6 km/h 6.4 km/h 87.7% 0.0 mm 248 W/m2
07:59 4.6 °C 2.5 °C 1020.1 hPa WNW 1.6 km/h 6.4 km/h 86.2% 0.0 mm 265 W/m2
08:04 4.9 °C 2.8 °C 1020.1 hPa WNW 2.2 km/h 8 km/h 86.2% 0.0 mm 290 W/m2
08:09 5.1 °C 2.7 °C 1020.2 hPa NW 3.8 km/h 8 km/h 85.1% 0.0 mm 308 W/m2
08:14 5.2 °C 2.9 °C 1020.2 hPa NW 3.9 km/h 8 km/h 85.4% 0.0 mm 325 W/m2
08:19 5.6 °C 3.3 °C 1020.2 hPa NW 2.3 km/h 8 km/h 85.1% 0.0 mm 343 W/m2
08:24 5.9 °C 3.4 °C 1020.3 hPa NW 2.2 km/h 9.7 km/h 83.7% 0.0 mm 362 W/m2
08:29 6.5 °C 3.8 °C 1020.3 hPa NW 3.2 km/h 9.7 km/h 82.9% 0.0 mm 380 W/m2
08:34 6.6 °C 3.6 °C 1020.3 hPa NNW 4.2 km/h 9.7 km/h 81.2% 0.0 mm 396 W/m2
08:39 6.7 °C 3.7 °C 1020.4 hPa NNW 4.8 km/h 9.7 km/h 81.1% 0.0 mm 413 W/m2
08:44 6.7 °C 3.5 °C 1020.4 hPa NNW 4.8 km/h 9.7 km/h 80% 0.0 mm 425 W/m2
08:49 7.1 °C 3.8 °C 1020.5 hPa NNW 4.8 km/h 11.3 km/h 79.7% 0.0 mm 441 W/m2
08:54 7.5 °C 4 °C 1020.5 hPa NNW 4.8 km/h 11.3 km/h 78.6% 0.0 mm 457 W/m2
08:59 7.8 °C 4.2 °C 1020.5 hPa NNW 3.9 km/h 11.3 km/h 77.8% 0.0 mm 473 W/m2
09:04 8.3 °C 4.1 °C 1020.5 hPa NNW 4.8 km/h 12.9 km/h 74.9% 0.0 mm 485 W/m2
09:09 8.2 °C 3.6 °C 1020.5 hPa NW 5.5 km/h 14.5 km/h 72.7% 0.0 mm 501 W/m2
09:14 8.3 °C 3.7 °C 1020.5 hPa NW 6.4 km/h 14.5 km/h 73.1% 0.0 mm 515 W/m2
09:19 8.6 °C 3.9 °C 1020.5 hPa NNW 6.4 km/h 14.5 km/h 72.1% 0.0 mm 526 W/m2
09:29 8.9 °C 3.7 °C 1020.5 hPa NW 8 km/h 14.5 km/h 69.7% 0.0 mm 554 W/m2
09:34 9.1 °C 2.9 °C 1020.5 hPa NNW 8 km/h 14.5 km/h 65.3% 0.0 mm 566 W/m2
09:39 9.3 °C 3 °C 1020.6 hPa NNW 7.8 km/h 14.5 km/h 64.9% 0.0 mm 577 W/m2
09:44 9.7 °C 3.1 °C 1020.6 hPa North 6.4 km/h 12.9 km/h 63.7% 0.0 mm 589 W/m2
09:49 10.2 °C 3.2 °C 1020.7 hPa NNW 5.5 km/h 12.9 km/h 61.6% 0.0 mm 599 W/m2
09:54 10.3 °C 2.6 °C 1020.7 hPa North 4.8 km/h 12.9 km/h 58.8% 0.0 mm 610 W/m2
09:59 10.3 °C 2.5 °C 1020.7 hPa North 6.7 km/h 12.9 km/h 58.5% 0.0 mm 622 W/m2
10:04 10.3 °C 2.4 °C 1020.7 hPa NNW 6.5 km/h 12.9 km/h 58% 0.0 mm 631 W/m2
10:09 10.5 °C 2.5 °C 1020.7 hPa NW 6.4 km/h 12.9 km/h 57.8% 0.0 mm 642 W/m2
10:14 10.7 °C 2.2 °C 1020.7 hPa NNW 7.7 km/h 16.1 km/h 55.5% 0.0 mm 652 W/m2
10:19 10.8 °C 2.1 °C 1020.5 hPa NNW 8 km/h 16.1 km/h 55% 0.0 mm 661 W/m2
10:24 10.9 °C 1.9 °C 1020.5 hPa NW 8 km/h 16.1 km/h 53.6% 0.0 mm 668 W/m2
10:29 10.8 °C 1.4 °C 1020.6 hPa NW 8.7 km/h 17.7 km/h 52.2% 0.0 mm 677 W/m2
10:34 11 °C 2 °C 1020.6 hPa NNW 9.7 km/h 17.7 km/h 53.9% 0.0 mm 684 W/m2
10:39 11.3 °C 2.1 °C 1020.6 hPa NNW 9 km/h 17.7 km/h 53% 0.0 mm 689 W/m2
10:44 11.4 °C 2.5 °C 1020.6 hPa NNW 8 km/h 19.3 km/h 54.4% 0.0 mm 696 W/m2
10:49 11.5 °C 2.1 °C 1020.6 hPa NNW 9 km/h 19.3 km/h 52.7% 0.0 mm 703 W/m2
10:54 11.8 °C 2.4 °C 1020.6 hPa NNW 9.7 km/h 19.3 km/h 52.5% 0.0 mm 708 W/m2
10:59 12.1 °C 2.5 °C 1020.5 hPa NNW 8.1 km/h 19.3 km/h 51.7% 0.0 mm 715 W/m2
11:04 11.8 °C 2.1 °C 1020.6 hPa NNW 9.6 km/h 20.9 km/h 51.5% 0.0 mm 719 W/m2
11:09 11.6 °C 2.2 °C 1020.5 hPa NNW 10.3 km/h 20.9 km/h 52.4% 0.0 mm 724 W/m2
11:14 12.4 °C 3 °C 1020.4 hPa NNW 9.7 km/h 20.9 km/h 52.8% 0.0 mm 729 W/m2
11:19 12.3 °C 2.3 °C 1020.4 hPa North 8.1 km/h 22.5 km/h 50.8% 0.0 mm 731 W/m2
11:24 12 °C 2.3 °C 1020.4 hPa NNW 9.3 km/h 22.5 km/h 51.6% 0.0 mm 737 W/m2
11:29 12.6 °C 2.8 °C 1020.3 hPa NNW 7.1 km/h 22.5 km/h 51.5% 0.0 mm 738 W/m2
11:34 13.2 °C 2.9 °C 1020.3 hPa NW 6.4 km/h 17.7 km/h 49.7% 0.0 mm 742 W/m2
11:39 13.1 °C 2.6 °C 1020.4 hPa NW 8 km/h 17.7 km/h 48.8% 0.0 mm 744 W/m2
11:44 12.8 °C 2.2 °C 1020.2 hPa NW 8 km/h 17.7 km/h 48.5% 0.0 mm 745 W/m2
11:49 13.2 °C 3 °C 1020.1 hPa NW 6.5 km/h 17.7 km/h 49.8% 0.0 mm 747 W/m2
11:54 13.8 °C 2.7 °C 1020.0 hPa NNW 6.4 km/h 12.9 km/h 47% 0.0 mm 747 W/m2
11:59 13.7 °C 2.9 °C 1020.0 hPa NNW 6.4 km/h 12.9 km/h 48% 0.0 mm 747 W/m2
12:04 14.3 °C 3.1 °C 1019.9 hPa NNW 5.8 km/h 16.1 km/h 46.8% 0.0 mm 751 W/m2
12:09 14.2 °C 3.1 °C 1019.9 hPa NW 6.4 km/h 19.3 km/h 47.5% 0.0 mm 749 W/m2
12:14 14.2 °C 3 °C 1019.9 hPa NW 7.7 km/h 19.3 km/h 46.9% 0.0 mm 745 W/m2
12:19 14.1 °C 2.7 °C 1019.8 hPa NW 7.4 km/h 19.3 km/h 46.4% 0.0 mm 744 W/m2
12:24 14 °C 3.1 °C 1019.7 hPa NW 6.8 km/h 17.7 km/h 47.8% 0.0 mm 744 W/m2
12:29 14 °C 2.9 °C 1019.8 hPa NW 5.8 km/h 14.5 km/h 47.2% 0.0 mm 740 W/m2
12:34 14.5 °C 3.2 °C 1019.7 hPa NNW 6.1 km/h 12.9 km/h 46.7% 0.0 mm 738 W/m2
12:39 14.5 °C 2.9 °C 1019.5 hPa North 7.4 km/h 16.1 km/h 45.6% 0.0 mm 733 W/m2
12:44 14.6 °C 3.4 °C 1019.5 hPa North 8 km/h 16.1 km/h 46.8% 0.0 mm 731 W/m2
12:49 14.5 °C 3.1 °C 1019.5 hPa North 8 km/h 17.7 km/h 46.2% 0.0 mm 728 W/m2
12:54 14 °C 2.9 °C 1019.4 hPa NNW 8 km/h 17.7 km/h 47.2% 0.0 mm 724 W/m2
12:59 14.6 °C 3.4 °C 1019.2 hPa NNW 7.4 km/h 17.7 km/h 47.2% 0.0 mm 719 W/m2
13:04 15.2 °C 3.5 °C 1019.3 hPa NNW 6.4 km/h 14.5 km/h 45.6% 0.0 mm 712 W/m2
13:09 15.4 °C 3.3 °C 1019.2 hPa North 5.2 km/h 14.5 km/h 44.5% 0.0 mm 708 W/m2
13:14 15.1 °C 3.4 °C 1019.2 hPa NNW 5.5 km/h 14.5 km/h 45.3% 0.0 mm 701 W/m2
13:19 15.3 °C 3.7 °C 1019.1 hPa NNW 6.4 km/h 14.5 km/h 46% 0.0 mm 694 W/m2
13:24 15.9 °C 3.8 °C 1019.1 hPa North 6.4 km/h 14.5 km/h 44.4% 0.0 mm 687 W/m2
Compliments of Weather Underground - 1 mb

Latitude S 35° 13' 00" Longitude E 149° 01' 22" Elevation 577 m
Page updated 12/04/2021 1:25:04 PM.
Powered by Cumulus MX v3.2.0 (3056)